Time;durP1;ratioP1;P1;durP2;ratioP2;P2;SDS_P1;SDS_P2;PMS_P1;PMS_P2;Temp;Humidity;BMP_temperature;BMP_pressure;BME280_temperature;BME280_humidity;BME280_pressure;Samples;Min_cycle;Max_cycle;Signal;HPM_P1;HPM_P2
2024/01/12 00:00:31;;;;;;;4.90;1.40;;;;;;;-8.37;62.24;99474.06;105416;1254;70098;-71
2024/01/12 00:02:59;;;;;;;2.40;1.00;;;;;;;-8.39;62.31;99480.98;105288;1258;72635;-72
2024/01/12 00:05:26;;;;;;;4.30;1.20;;;;;;;-8.29;62.19;99484.77;105422;1257;60455;-73
2024/01/12 00:07:54;;;;;;;4.00;1.60;;;;;;;-8.23;62.15;99493.66;105526;1253;59691;-74
2024/01/12 00:10:21;;;;;;;2.40;0.90;;;;;;;-8.21;62.15;99498.73;105619;1260;73026;-73
2024/01/12 00:12:48;;;;;;;5.00;1.00;;;;;;;-8.27;62.04;99497.06;106120;1253;70325;-73
2024/01/12 00:15:16;;;;;;;2.80;1.20;;;;;;;-8.34;62.28;99502.45;106775;1258;71087;-72
2024/01/12 00:17:43;;;;;;;4.20;1.20;;;;;;;-8.42;62.30;99506.89;107221;1254;59597;-71
2024/01/12 00:20:11;;;;;;;3.50;1.40;;;;;;;-8.51;62.17;99512.04;106169;1258;60432;-73
2024/01/12 00:22:38;;;;;;;3.30;1.30;;;;;;;-8.61;62.46;99511.84;105556;1253;72986;-76
2024/01/12 00:25:06;;;;;;;4.40;1.40;;;;;;;-8.67;62.25;99517.23;105531;1253;70213;-71
2024/01/12 00:27:34;;;;;;;2.70;1.20;;;;;;;-8.60;62.54;99519.02;105469;1254;71404;-71
2024/01/12 00:30:01;;;;;;;1.90;1.00;;;;;;;-8.53;62.39;99520.48;105610;1256;60863;-72
2024/01/12 00:32:28;;;;;;;1.50;0.90;;;;;;;-8.48;62.65;99518.27;105341;1253;59713;-72
2024/01/12 00:34:56;;;;;;;1.60;1.00;;;;;;;-8.52;62.76;99517.88;105536;1253;71841;-72
2024/01/12 00:37:24;;;;;;;3.10;1.50;;;;;;;-8.60;63.03;99534.30;105519;1254;69875;-73
2024/01/12 00:39:51;;;;;;;2.30;1.10;;;;;;;-8.66;63.15;99531.41;105390;1258;72675;-73
2024/01/12 00:42:18;;;;;;;3.70;1.10;;;;;;;-8.72;62.95;99536.42;105431;1259;60037;-73
2024/01/12 00:44:46;;;;;;;3.80;1.30;;;;;;;-8.81;63.00;99542.42;105383;1258;60022;-73
2024/01/12 00:47:13;;;;;;;1.80;0.80;;;;;;;-8.89;63.15;99549.55;105531;1253;71970;-72
2024/01/12 00:49:41;;;;;;;3.00;1.30;;;;;;;-8.88;63.20;99553.95;105270;1259;70392;-71
2024/01/12 00:52:08;;;;;;;2.10;0.90;;;;;;;-8.77;63.21;99560.82;105504;1258;71471;-73
2024/01/12 00:54:36;;;;;;;2.00;1.00;;;;;;;-8.69;63.39;99563.48;105568;1253;59630;-71
2024/01/12 00:57:03;;;;;;;2.40;0.90;;;;;;;-8.71;63.26;99564.39;105606;1259;59599;-71
2024/01/12 00:59:31;;;;;;;3.20;1.00;;;;;;;-8.77;63.47;99568.38;105539;1259;72834;-72
2024/01/12 01:01:58;;;;;;;1.80;1.00;;;;;;;-8.85;63.49;99566.39;105628;1258;71053;-69
2024/01/12 01:04:26;;;;;;;3.20;1.50;;;;;;;-8.94;63.65;99569.25;105665;1259;71052;-72
2024/01/12 01:06:54;;;;;;;4.20;1.70;;;;;;;-9.02;63.68;99575.17;105863;1253;59749;-71
2024/01/12 01:09:22;;;;;;;3.10;1.10;;;;;;;-9.09;63.83;99574.54;105967;1259;60044;-72
2024/01/12 01:11:52;;;;;;;2.50;1.40;;;;;;;-9.02;63.79;99574.66;106005;1253;73022;-72
2024/01/12 01:14:23;;;;;;;3.40;1.10;;;;;;;-8.93;63.71;99576.60;105973;1253;69112;-71
2024/01/12 01:16:51;;;;;;;4.80;1.20;;;;;;;-8.86;63.77;99573.30;105993;1254;74694;-73
2024/01/12 01:19:20;;;;;;;4.10;1.50;;;;;;;-8.84;63.76;99580.11;105832;1259;59718;-71
2024/01/12 01:21:47;;;;;;;2.00;1.10;;;;;;;-8.90;63.80;99579.75;105799;1259;59625;-72
2024/01/12 01:24:15;;;;;;;5.40;1.10;;;;;;;-8.96;64.09;99578.27;105702;1253;73513;-71
2024/01/12 01:26:42;;;;;;;3.30;1.50;;;;;;;-9.02;63.94;99577.27;105875;1259;69009;-72
2024/01/12 01:29:10;;;;;;;3.70;1.50;;;;;;;-9.11;63.75;99585.41;105661;1258;71301;-72
2024/01/12 01:31:37;;;;;;;3.80;1.30;;;;;;;-9.19;64.27;99587.73;105824;1256;62011;-71
2024/01/12 01:34:05;;;;;;;4.00;1.30;;;;;;;-9.12;63.88;99588.35;105890;1253;59973;-71
2024/01/12 01:36:33;;;;;;;3.70;1.20;;;;;;;-9.04;63.97;99590.52;105492;1253;70595;-72
2024/01/12 01:39:00;;;;;;;4.30;1.00;;;;;;;-9.01;63.88;99592.83;105409;1259;70504;-72
2024/01/12 01:41:28;;;;;;;4.50;1.70;;;;;;;-8.99;64.22;99594.13;105511;1253;71351;-72
2024/01/12 01:43:55;;;;;;;4.00;1.10;;;;;;;-9.01;64.21;99600.90;105459;1254;59706;-72
2024/01/12 01:46:23;;;;;;;4.20;1.50;;;;;;;-9.06;64.29;99602.44;105492;1259;60020;-71
2024/01/12 01:48:50;;;;;;;3.70;1.20;;;;;;;-9.15;64.06;99601.70;105432;1256;72964;-71
2024/01/12 01:51:18;;;;;;;3.00;1.10;;;;;;;-9.24;64.09;99607.45;105466;1258;70472;-71
2024/01/12 01:53:45;;;;;;;3.40;1.00;;;;;;;-9.32;64.33;99604.77;105531;1257;72821;-71
2024/01/12 01:56:13;;;;;;;3.40;1.30;;;;;;;-9.25;64.44;99605.74;105270;1256;61771;-71
2024/01/12 01:58:41;;;;;;;2.90;1.10;;;;;;;-9.16;64.24;99609.25;105452;1253;59811;-72
2024/01/12 02:01:09;;;;;;;3.00;1.10;;;;;;;-9.12;64.30;99611.52;105598;1258;73234;-72
2024/01/12 02:03:36;;;;;;;3.00;1.10;;;;;;;-9.12;64.28;99605.38;105323;1253;70275;-73
2024/01/12 02:06:04;;;;;;;3.00;1.00;;;;;;;-9.21;64.21;99610.08;105331;1260;71287;-72
2024/01/12 02:08:32;;;;;;;4.20;1.10;;;;;;;-9.27;64.57;99611.33;105352;1256;59726;-71
2024/01/12 02:10:59;;;;;;;3.70;1.60;;;;;;;-9.36;64.73;99612.08;105810;1259;60060;-70
2024/01/12 02:13:27;;;;;;;2.80;1.30;;;;;;;-9.44;64.66;99619.02;105938;1256;71806;-71
2024/01/12 02:15:54;;;;;;;3.20;1.20;;;;;;;-9.52;64.91;99624.92;105668;1259;68718;-71
2024/01/12 02:18:21;;;;;;;4.10;1.60;;;;;;;-9.48;65.03;99629.59;105512;1253;72957;-72
2024/01/12 02:20:56;;;;;;;2.10;1.10;;;;;;;-9.41;64.68;99632.96;105374;1254;59803;-73
2024/01/12 02:23:23;;;;;;;3.50;1.50;;;;;;;-9.34;64.85;99633.97;105590;1257;59516;-67
2024/01/12 02:25:51;;;;;;;4.80;1.60;;;;;;;-9.29;64.89;99637.42;105471;1256;71182;-70
2024/01/12 02:28:18;;;;;;;5.60;1.90;;;;;;;-9.36;65.00;99636.80;105513;1258;68819;-71
2024/01/12 02:30:46;;;;;;;5.40;2.10;;;;;;;-9.47;65.08;99642.60;105552;1259;70350;-70
2024/01/12 02:33:13;;;;;;;5.00;2.50;;;;;;;-9.58;65.14;99646.52;105253;1262;60688;-71
2024/01/12 02:35:41;;;;;;;7.00;4.10;;;;;;;-9.69;65.36;99649.23;105441;1253;59805;-71
2024/01/12 02:38:09;;;;;;;7.50;4.50;;;;;;;-9.73;65.51;99659.26;105437;1254;71979;-71
2024/01/12 02:40:36;;;;;;;5.70;3.80;;;;;;;-9.67;65.43;99659.80;105347;1259;69954;-71
2024/01/12 02:43:03;;;;;;;7.40;3.50;;;;;;;-9.62;65.50;99663.94;105457;1258;72721;-71
2024/01/12 02:45:31;;;;;;;20.90;10.80;;;;;;;-9.56;65.60;99664.28;105474;1256;60981;-71
2024/01/12 02:47:59;;;;;;;11.70;4.40;;;;;;;-9.51;65.54;99670.84;105178;1262;59637;-70
2024/01/12 02:50:26;;;;;;;4.70;2.30;;;;;;;-9.57;65.59;99672.89;105384;1259;71621;-71
2024/01/12 02:52:54;;;;;;;5.70;2.20;;;;;;;-9.63;65.93;99677.02;105518;1256;69986;-69
2024/01/12 02:55:21;;;;;;;5.50;2.10;;;;;;;-9.74;65.91;99677.11;105534;1257;71387;-70
2024/01/12 02:57:48;;;;;;;6.30;2.30;;;;;;;-9.80;66.13;99678.51;105430;1258;60215;-71
2024/01/12 03:00:16;;;;;;;4.30;1.50;;;;;;;-9.82;66.16;99678.38;105580;1257;60356;-73
2024/01/12 03:02:44;;;;;;;3.90;1.50;;;;;;;-9.72;66.08;99684.60;105864;1253;70424;-70
2024/01/12 03:05:11;;;;;;;2.40;0.90;;;;;;;-9.63;65.85;99685.23;105466;1259;68763;-71
2024/01/12 03:07:40;;;;;;;1.90;1.10;;;;;;;-9.58;65.89;99691.10;106195;1256;72491;-71
2024/01/12 03:10:09;;;;;;;2.50;1.10;;;;;;;-9.58;65.82;99692.80;106641;1254;59707;-71
2024/01/12 03:12:36;;;;;;;4.60;1.30;;;;;;;-9.61;65.96;99690.66;106383;1255;59608;-71
2024/01/12 03:15:04;;;;;;;4.30;1.30;;;;;;;-9.68;66.21;99692.92;105546;1259;73028;-72
2024/01/12 03:17:32;;;;;;;2.50;1.40;;;;;;;-9.75;66.22;99696.70;105458;1258;68465;-72
2024/01/12 03:19:59;;;;;;;4.30;1.90;;;;;;;-9.82;66.27;99698.60;105236;1258;71207;-73
2024/01/12 03:22:29;;;;;;;4.50;1.20;;;;;;;-9.91;66.26;99707.06;105651;1254;60273;-71
2024/01/12 03:24:56;;;;;;;3.40;1.60;;;;;;;-9.90;66.37;99707.72;105471;1260;59661;-74
2024/01/12 03:27:24;;;;;;;3.40;1.20;;;;;;;-9.82;66.12;99709.58;105770;1259;73015;-72
2024/01/12 03:29:51;;;;;;;2.60;1.20;;;;;;;-9.80;66.24;99711.21;105650;1259;69176;-72
2024/01/12 03:32:20;;;;;;;2.30;1.00;;;;;;;-9.80;66.11;99711.38;105429;1259;71847;-71
2024/01/12 03:34:48;;;;;;;2.40;1.30;;;;;;;-9.76;66.38;99713.20;105596;1257;60540;-72
2024/01/12 03:37:15;;;;;;;4.30;1.40;;;;;;;-9.78;66.45;99714.60;105473;1256;60348;-72
2024/01/12 03:39:43;;;;;;;2.30;1.10;;;;;;;-9.87;66.40;99721.36;105506;1253;74227;-73
2024/01/12 03:42:11;;;;;;;6.00;1.10;;;;;;;-9.98;66.53;99719.77;108976;1253;70277;-72
2024/01/12 03:44:38;;;;;;;2.50;1.00;;;;;;;-10.08;66.60;99726.17;106531;1259;71413;-71
2024/01/12 03:47:06;;;;;;;3.40;1.30;;;;;;;-10.13;66.89;99735.20;105493;1262;60379;-72
2024/01/12 03:49:33;;;;;;;3.70;1.20;;;;;;;-10.06;66.73;99735.20;105519;1254;60594;-72
2024/01/12 03:52:01;;;;;;;2.50;1.20;;;;;;;-9.99;66.53;99739.99;105463;1259;74264;-72
2024/01/12 03:54:42;;;;;;;3.70;1.10;;;;;;;-9.94;66.75;99743.12;105321;1261;69465;-73
2024/01/12 03:57:09;;;;;;;3.30;1.10;;;;;;;-9.91;66.66;99741.67;105456;1256;72762;-73
2024/01/12 03:59:37;;;;;;;3.00;1.10;;;;;;;-9.90;66.57;99746.27;105588;1257;60332;-72
2024/01/12 04:02:04;;;;;;;3.90;1.90;;;;;;;-9.97;66.85;99750.91;105417;1254;60492;-72
2024/01/12 04:04:32;;;;;;;16.50;6.60;;;;;;;-10.05;67.02;99753.17;105805;1254;74204;-73
2024/01/12 04:06:59;;;;;;;4.00;2.10;;;;;;;-10.12;66.91;99753.33;106976;1256;70333;-73
2024/01/12 04:09:27;;;;;;;5.60;2.70;;;;;;;-10.19;66.96;99761.06;107254;1259;71608;-72
2024/01/12 04:11:55;;;;;;;5.20;3.00;;;;;;;-10.23;67.05;99757.89;106066;1259;60594;-72
2024/01/12 04:14:22;;;;;;;4.00;1.80;;;;;;;-10.17;66.86;99763.90;105599;1258;60341;-74
2024/01/12 04:16:50;;;;;;;5.30;2.40;;;;;;;-10.10;66.90;99764.77;105602;1254;73190;-73
2024/01/12 04:19:17;;;;;;;3.80;1.90;;;;;;;-10.08;66.88;99774.84;105550;1259;70076;-72
2024/01/12 04:21:45;;;;;;;3.20;1.70;;;;;;;-10.06;67.03;99779.08;105532;1253;72838;-72
2024/01/12 04:24:12;;;;;;;2.70;1.60;;;;;;;-10.08;66.86;99782.37;105534;1258;60427;-73
2024/01/12 04:26:40;;;;;;;5.70;2.00;;;;;;;-10.06;67.13;99785.77;105554;1259;60337;-73
2024/01/12 04:29:07;;;;;;;5.70;2.00;;;;;;;-10.07;67.31;99792.96;105356;1259;73800;-73
2024/01/12 04:31:39;;;;;;;3.30;2.30;;;;;;;-10.13;67.18;99790.02;105574;1267;70131;-73
2024/01/12 04:34:07;;;;;;;6.30;2.10;;;;;;;-10.20;67.37;99788.30;105403;1253;75073;-74
2024/01/12 04:36:34;;;;;;;5.40;2.10;;;;;;;-10.26;67.44;99795.14;105871;1259;60537;-73
2024/01/12 04:39:02;;;;;;;2.60;1.60;;;;;;;-10.31;67.39;99800.09;105838;1257;60464;-72
2024/01/12 04:41:30;;;;;;;6.80;1.80;;;;;;;-10.28;67.28;99801.16;105352;1258;73970;-72
2024/01/12 04:43:58;;;;;;;7.50;1.40;;;;;;;-10.25;66.98;99803.52;105468;1258;68839;-73
2024/01/12 04:46:25;;;;;;;3.30;1.80;;;;;;;-10.26;67.07;99809.19;105520;1258;72749;-73
2024/01/12 04:48:52;;;;;;;5.80;2.80;;;;;;;-10.28;67.17;99812.82;105570;1254;61205;-73
2024/01/12 04:51:20;;;;;;;5.70;3.70;;;;;;;-10.25;67.36;99816.70;105576;1257;60559;-71
2024/01/12 04:53:47;;;;;;;8.00;5.30;;;;;;;-10.19;67.25;99813.98;105607;1256;74267;-73
2024/01/12 04:56:16;;;;;;;5.10;3.10;;;;;;;-10.22;67.34;99817.98;105588;1259;68748;-73
2024/01/12 04:58:43;;;;;;;5.00;2.60;;;;;;;-10.31;67.46;99829.00;105729;1259;71050;-73
2024/01/12 05:01:11;;;;;;;5.20;3.00;;;;;;;-10.39;67.56;99830.73;106328;1256;60541;-73
2024/01/12 05:03:42;;;;;;;5.10;2.60;;;;;;;-10.48;67.68;99832.82;105903;1253;60429;-72
2024/01/12 05:06:10;;;;;;;5.50;1.90;;;;;;;-10.57;67.73;99839.17;107678;1254;72768;-71
2024/01/12 05:08:37;;;;;;;6.80;2.50;;;;;;;-10.60;67.71;99841.29;107348;1259;69013;-71
2024/01/12 05:11:05;;;;;;;3.60;1.50;;;;;;;-10.53;67.56;99842.85;106415;1257;71547;-73
2024/01/12 05:13:32;;;;;;;5.50;2.10;;;;;;;-10.48;67.44;99849.95;106735;1256;60548;-74
2024/01/12 05:15:59;;;;;;;5.10;2.90;;;;;;;-10.45;67.67;99850.73;105803;1257;60427;-72
2024/01/12 05:18:27;;;;;;;6.40;1.70;;;;;;;-10.38;67.86;99858.95;105816;1259;74926;-73
2024/01/12 05:20:54;;;;;;;4.60;1.90;;;;;;;-10.32;67.79;99861.23;105843;1257;68677;-75
2024/01/12 05:23:22;;;;;;;7.20;3.10;;;;;;;-10.35;67.87;99861.98;105401;1268;71322;-75
2024/01/12 05:25:49;;;;;;;7.10;3.20;;;;;;;-10.38;68.05;99867.71;105882;1256;60556;-74
2024/01/12 05:28:17;;;;;;;7.00;2.40;;;;;;;-10.46;68.05;99867.02;105827;1253;60336;-73
2024/01/12 05:30:44;;;;;;;3.60;1.90;;;;;;;-10.54;67.94;99866.52;105481;1254;73784;-74
2024/01/12 05:33:12;;;;;;;9.10;3.00;;;;;;;-10.54;67.72;99861.20;105931;1256;69030;-74
2024/01/12 05:35:40;;;;;;;7.50;3.60;;;;;;;-10.50;67.53;99868.11;105774;1254;72731;-76
2024/01/12 05:38:07;;;;;;;7.10;3.10;;;;;;;-10.51;67.44;99872.95;105741;1259;60959;-75
2024/01/12 05:40:35;;;;;;;5.20;2.50;;;;;;;-10.52;67.51;99877.25;105890;1254;60949;-75
2024/01/12 05:43:03;;;;;;;9.40;2.90;;;;;;;-10.52;67.78;99876.22;105807;1254;73843;-76
2024/01/12 05:45:30;;;;;;;4.80;2.00;;;;;;;-10.59;67.94;99885.94;105873;1254;69172;-74
2024/01/12 05:47:57;;;;;;;5.10;2.30;;;;;;;-10.67;68.07;99891.27;105825;1254;72761;-73
2024/01/12 05:50:25;;;;;;;5.00;1.90;;;;;;;-10.77;68.27;99893.17;105825;1259;60508;-75
2024/01/12 05:52:53;;;;;;;3.20;1.80;;;;;;;-10.88;68.31;99896.62;105906;1253;61233;-73
2024/01/12 05:55:20;;;;;;;6.60;2.30;;;;;;;-10.83;68.24;99895.50;105816;1254;73730;-75
2024/01/12 05:57:47;;;;;;;6.80;2.70;;;;;;;-10.76;68.14;99895.89;106042;1266;70790;-74
2024/01/12 06:00:16;;;;;;;5.70;2.50;;;;;;;-10.69;68.31;99896.10;107352;1254;70455;-73
2024/01/12 06:02:43;;;;;;;5.80;2.10;;;;;;;-10.61;68.34;99900.90;108594;1254;60258;-82
2024/01/12 06:05:11;;;;;;;3.90;2.00;;;;;;;-10.52;68.38;99899.84;109379;1253;58864;-81
2024/01/12 06:07:38;;;;;;;5.20;2.10;;;;;;;-10.51;68.59;99899.65;109042;1254;72870;-80
2024/01/12 06:10:08;;;;;;;4.60;2.30;;;;;;;-10.48;68.74;99898.23;108184;1254;68785;-79
2024/01/12 06:12:36;;;;;;;3.00;1.90;;;;;;;-10.48;68.58;99903.03;107286;1257;71090;-80
2024/01/12 06:15:04;;;;;;;3.90;1.90;;;;;;;-10.51;68.54;99907.70;106989;1254;60303;-80
2024/01/12 06:17:32;;;;;;;6.00;2.30;;;;;;;-10.54;68.26;99904.86;106091;1257;60549;-80
2024/01/12 06:19:59;;;;;;;3.90;1.50;;;;;;;-10.45;68.21;99899.52;106281;1254;72649;-79
2024/01/12 06:22:27;;;;;;;4.70;1.60;;;;;;;-10.36;67.93;99903.79;106202;1260;72933;-79
2024/01/12 06:24:54;;;;;;;6.20;2.10;;;;;;;-10.33;67.61;99901.86;105985;1255;71503;-79
2024/01/12 06:27:22;;;;;;;4.20;1.80;;;;;;;-10.30;67.73;99902.11;106041;1253;60845;-81
2024/01/12 06:29:49;;;;;;;9.70;1.90;;;;;;;-10.29;67.79;99904.13;106223;1257;60553;-78
2024/01/12 06:32:16;;;;;;;4.10;1.60;;;;;;;-10.33;68.08;99910.75;106606;1253;72413;-79
2024/01/12 06:34:44;;;;;;;5.80;1.90;;;;;;;-10.34;68.05;99915.39;106325;1254;70340;-77
2024/01/12 06:37:11;;;;;;;8.20;2.30;;;;;;;-10.43;67.75;99915.93;106123;1256;70560;-80
2024/01/12 06:39:42;;;;;;;11.50;3.80;;;;;;;-10.54;67.75;99919.75;105812;1252;60461;-78
2024/01/12 06:42:10;;;;;;;12.20;4.90;;;;;;;-10.54;67.61;99923.35;105989;1254;60450;-80
2024/01/12 06:44:43;;;;;;;13.40;4.60;;;;;;;-10.46;67.60;99918.39;106001;1257;73780;-80
2024/01/12 06:47:11;;;;;;;;;;;;;;;-10.38;67.67;99919.60;106835;1254;70134;-80
2024/01/12 06:49:42;;;;;;;9.70;4.60;;;;;;;-10.33;67.74;99920.85;106751;1254;71901;-80
2024/01/12 06:52:10;;;;;;;9.50;4.50;;;;;;;-10.23;68.02;99919.91;106165;1254;60915;-81
2024/01/12 06:54:37;;;;;;;8.70;4.10;;;;;;;-10.13;67.93;99921.24;106045;1254;60484;-80
2024/01/12 06:57:05;;;;;;;6.90;3.90;;;;;;;-10.13;67.78;99920.05;106171;1255;73901;-80
2024/01/12 06:59:32;;;;;;;10.20;3.60;;;;;;;-10.18;67.52;99919.13;106727;1254;69083;-77
2024/01/12 07:02:02;;;;;;;7.20;3.70;;;;;;;-10.21;67.75;99926.55;108285;1254;71489;-80
2024/01/12 07:04:29;;;;;;;7.80;3.80;;;;;;;-10.22;67.31;99929.48;109009;1253;61362;-78
2024/01/12 07:06:57;;;;;;;8.80;4.20;;;;;;;-10.17;67.29;99931.27;108116;1254;61000;-81
2024/01/12 07:09:25;;;;;;;8.40;3.90;;;;;;;-10.02;67.08;99935.23;108304;1254;74332;-78
2024/01/12 07:11:53;;;;;;;10.60;4.00;;;;;;;-9.89;67.09;99938.54;107206;1251;70115;-80
2024/01/12 07:14:21;;;;;;;10.00;4.10;;;;;;;-9.78;67.06;99943.27;106247;1257;71482;-80
2024/01/12 07:16:49;;;;;;;6.20;2.90;;;;;;;-9.69;66.77;99940.47;105945;1257;60898;-82
2024/01/12 07:19:17;;;;;;;6.60;3.20;;;;;;;-9.62;66.54;99941.86;107780;1252;60030;-80
2024/01/12 07:21:44;;;;;;;6.70;2.90;;;;;;;-9.62;66.72;99945.28;106189;1254;72571;-80
2024/01/12 07:24:12;;;;;;;7.00;3.60;;;;;;;-9.63;66.87;99948.92;106207;1254;69985;-82
2024/01/12 07:26:39;;;;;;;4.50;2.60;;;;;;;-9.63;66.88;99950.98;106447;1254;71182;-77
2024/01/12 07:29:07;;;;;;;8.00;2.60;;;;;;;-9.62;66.76;99949.55;107707;1254;60638;-79
2024/01/12 07:31:36;;;;;;;8.20;2.50;;;;;;;-9.59;66.44;99950.20;107150;1253;60518;-78
2024/01/12 07:34:04;;;;;;;5.50;2.60;;;;;;;-9.54;66.24;99954.35;109371;1253;72563;-83
2024/01/12 07:36:32;;;;;;;5.60;2.50;;;;;;;-9.35;66.10;99961.27;106558;1254;69040;-81
2024/01/12 07:39:00;;;;;;;3.90;1.60;;;;;;;-9.16;65.88;99965.09;106024;1257;71596;-82
2024/01/12 07:41:27;;;;;;;5.80;2.40;;;;;;;-9.06;65.60;99967.77;106225;1254;60914;-84
2024/01/12 07:43:55;;;;;;;7.90;2.50;;;;;;;-9.04;65.65;99965.98;106265;1254;60347;-81
2024/01/12 07:46:23;;;;;;;3.00;1.50;;;;;;;-9.07;65.13;99971.04;106224;1254;73841;-81
2024/01/12 07:48:51;;;;;;;3.40;2.00;;;;;;;-9.12;65.23;99975.98;107250;1253;70605;-80
2024/01/12 07:51:20;;;;;;;7.80;2.20;;;;;;;-9.16;64.98;99976.27;106622;1256;71445;-80
2024/01/12 07:53:47;;;;;;;3.90;2.30;;;;;;;-9.16;65.34;99978.66;106828;1254;60146;-79
2024/01/12 07:56:15;;;;;;;7.50;2.50;;;;;;;-9.12;65.76;99978.02;106956;1257;60421;-82
2024/01/12 07:58:42;;;;;;;3.60;1.90;;;;;;;-9.01;65.34;99971.75;107707;1253;72630;-82
2024/01/12 08:01:17;;;;;;;5.20;2.30;;;;;;;-8.85;64.76;99965.69;109266;1251;70168;-82
2024/01/12 08:03:44;;;;;;;5.40;2.40;;;;;;;-8.70;64.91;99960.65;109067;1254;73685;-81
2024/01/12 08:06:12;;;;;;;3.60;1.80;;;;;;;-8.52;64.74;99958.60;108150;1255;59725;-80
2024/01/12 08:08:39;;;;;;;5.00;2.30;;;;;;;-8.41;64.50;99956.21;107872;1254;60311;-80
2024/01/12 08:11:07;;;;;;;4.20;1.80;;;;;;;-8.36;64.75;99956.06;106795;1257;74120;-81
2024/01/12 08:13:53;;;;;;;3.90;1.70;;;;;;;-8.31;64.08;99959.70;106826;1257;71161;-82
2024/01/12 08:16:21;;;;;;;7.50;2.50;;;;;;;-8.30;64.14;99961.36;106378;1257;71393;-81
2024/01/12 08:18:49;;;;;;;4.60;2.00;;;;;;;-8.32;63.82;99967.81;106304;1256;61191;-81
2024/01/12 08:21:16;;;;;;;3.40;1.90;;;;;;;-8.36;63.58;99969.29;106010;1257;62433;-81
2024/01/12 08:23:44;;;;;;;5.00;1.90;;;;;;;-8.37;63.66;99968.63;105955;1255;72598;-82
2024/01/12 08:26:13;;;;;;;3.00;1.60;;;;;;;-8.27;63.68;99976.41;106147;1254;69069;-80
2024/01/12 08:28:41;;;;;;;2.70;1.50;;;;;;;-8.06;63.41;99980.10;106021;1255;71527;-81
2024/01/12 08:31:08;;;;;;;4.90;1.60;;;;;;;-7.91;62.64;99984.67;105949;1253;60546;-80
2024/01/12 08:33:37;;;;;;;3.50;1.70;;;;;;;-7.76;62.75;99978.35;105830;1254;60617;-80
2024/01/12 08:36:05;;;;;;;6.20;2.20;;;;;;;-7.57;62.86;99982.06;106083;1256;73859;-81
2024/01/12 08:38:33;;;;;;;6.10;1.90;;;;;;;-7.40;62.73;99986.53;106288;1257;69485;-81
2024/01/12 08:41:00;;;;;;;5.00;1.80;;;;;;;-7.12;63.04;99988.92;106122;1260;73963;-81
2024/01/12 08:43:28;;;;;;;3.40;1.60;;;;;;;-6.86;62.18;99987.02;106544;1254;60470;-84
2024/01/12 08:45:55;;;;;;;3.00;1.50;;;;;;;-6.59;62.00;99992.27;106831;1253;60354;-80
2024/01/12 08:48:23;;;;;;;5.50;1.90;;;;;;;-6.34;61.51;99997.45;106621;1257;73979;-77
2024/01/12 08:50:50;;;;;;;7.30;2.80;;;;;;;-6.08;60.98;100000.81;106463;1253;69260;-78
2024/01/12 08:53:18;;;;;;;5.10;2.40;;;;;;;-5.82;59.80;100001.86;106650;1254;70215;-82
2024/01/12 08:55:46;;;;;;;4.60;2.30;;;;;;;-5.68;58.24;100005.65;106812;1254;60489;-81
2024/01/12 08:58:13;;;;;;;6.70;3.30;;;;;;;-5.54;58.79;100009.26;107159;1253;60350;-81
2024/01/12 09:00:41;;;;;;;9.00;3.20;;;;;;;-5.25;59.78;100011.41;109109;1257;73860;-80
2024/01/12 09:03:08;;;;;;;6.80;4.10;;;;;;;-4.87;59.30;100012.80;108973;1254;68858;-80
2024/01/12 09:05:36;;;;;;;5.20;3.10;;;;;;;-4.54;57.85;100004.67;107103;1254;71144;-80
2024/01/12 09:08:04;;;;;;;5.00;2.60;;;;;;;-4.25;57.98;100004.13;107068;1254;60491;-81
2024/01/12 09:10:31;;;;;;;4.00;2.30;;;;;;;-3.88;57.52;100002.98;107076;1254;60531;-82
2024/01/12 09:12:59;;;;;;;3.60;2.40;;;;;;;-3.58;55.62;100003.48;106646;1253;74161;-82
2024/01/12 09:15:26;;;;;;;4.40;2.10;;;;;;;-3.34;55.37;100008.42;106687;1253;68876;-82
2024/01/12 09:17:54;;;;;;;5.10;2.80;;;;;;;-2.87;55.54;100003.55;107305;1253;70477;-83
2024/01/12 09:20:21;;;;;;;5.40;3.10;;;;;;;-2.62;53.68;100002.11;107215;1257;60484;-81
2024/01/12 09:22:49;;;;;;;6.90;3.50;;;;;;;-2.32;53.47;100001.10;106444;1254;60442;-80
2024/01/12 09:25:16;;;;;;;5.90;3.60;;;;;;;-1.94;52.70;99995.42;106542;1254;72611;-80
2024/01/12 09:27:44;;;;;;;5.60;3.20;;;;;;;-1.51;52.34;99995.90;107520;1253;68986;-79
2024/01/12 09:30:12;;;;;;;8.00;3.80;;;;;;;-1.31;50.57;99997.39;106485;1253;71479;-82
2024/01/12 09:32:39;;;;;;;5.90;3.00;;;;;;;-1.26;50.04;99997.08;106169;1254;60448;-80
2024/01/12 09:35:08;;;;;;;5.10;3.10;;;;;;;-1.08;49.69;99997.86;106132;1254;60902;-81
2024/01/12 09:37:36;;;;;;;4.80;2.80;;;;;;;-0.80;49.76;100000.77;106053;1254;73857;-80
2024/01/12 09:40:04;;;;;;;4.60;2.30;;;;;;;-0.26;48.14;100000.89;106104;1256;69447;-81
2024/01/12 09:42:32;;;;;;;7.00;4.50;;;;;;;0.07;47.60;99995.20;105997;1253;72800;-81
2024/01/12 09:45:00;;;;;;;8.80;5.20;;;;;;;0.43;47.82;99996.98;106800;1253;60380;-80
2024/01/12 09:47:36;;;;;;;4.90;3.10;;;;;;;1.05;47.80;99996.13;106013;1257;60524;-80
2024/01/12 09:50:05;;;;;;;4.60;3.00;;;;;;;1.51;46.74;99995.16;106245;1256;76165;-80
2024/01/12 09:52:33;;;;;;;5.90;3.40;;;;;;;1.91;45.81;99994.54;106106;1254;69666;-79
2024/01/12 09:55:00;;;;;;;5.40;3.40;;;;;;;2.43;44.96;99992.41;106582;1253;70465;-78
2024/01/12 09:57:28;;;;;;;9.20;5.90;;;;;;;2.84;43.71;99995.76;108357;1253;60206;-80
2024/01/12 09:59:55;;;;;;;3.90;3.30;;;;;;;2.91;42.17;100002.25;108833;1253;59244;-78
2024/01/12 10:02:23;;;;;;;6.40;4.00;;;;;;;2.88;42.53;100000.75;108306;1253;72918;-77
2024/01/12 10:04:52;;;;;;;4.10;2.80;;;;;;;3.24;42.19;100005.08;106088;1257;68706;-78
2024/01/12 10:07:19;;;;;;;5.10;2.20;;;;;;;3.33;40.52;100000.90;106449;1253;71804;-79
2024/01/12 10:09:47;;;;;;;2.80;2.00;;;;;;;3.23;41.69;100001.67;106292;1257;60329;-80
2024/01/12 10:12:20;;;;;;;4.70;2.00;;;;;;;3.23;41.87;100003.38;106275;1257;60441;-81
2024/01/12 10:15:01;;;;;;;4.60;2.30;;;;;;;3.36;40.85;100000.85;107039;1253;72828;-80
2024/01/12 10:17:33;;;;;;;4.70;2.30;;;;;;;3.57;41.19;99992.98;106281;1254;70170;-81
2024/01/12 10:20:03;;;;;;;4.60;2.50;;;;;;;3.87;42.02;99989.66;106321;1254;71545;-80
2024/01/12 10:22:31;;;;;;;4.40;2.10;;;;;;;4.34;41.93;99998.19;106765;1260;60518;-80
2024/01/12 10:24:59;;;;;;;2.90;1.90;;;;;;;4.76;41.44;99997.30;106112;1254;62393;-81
2024/01/12 10:27:27;;;;;;;5.10;2.30;;;;;;;4.93;41.23;99994.91;106031;1254;74055;-77
2024/01/12 10:29:56;;;;;;;4.00;2.50;;;;;;;5.29;40.77;99996.66;105861;1254;69201;-79
2024/01/12 10:32:24;;;;;;;5.50;3.00;;;;;;;5.86;40.44;99995.35;105879;1253;71504;-77
2024/01/12 10:34:55;;;;;;;6.40;3.80;;;;;;;6.38;39.70;99999.48;105879;1254;60527;-80
2024/01/12 10:37:22;;;;;;;5.50;3.20;;;;;;;6.42;39.28;99994.93;105868;1254;60452;-80
2024/01/12 10:39:50;;;;;;;8.80;3.10;;;;;;;6.03;37.23;99989.73;106145;1256;73783;-79
2024/01/12 10:42:20;;;;;;;5.70;3.10;;;;;;;5.13;36.57;99988.64;106007;1253;72816;-80
2024/01/12 10:44:48;;;;;;;4.40;2.40;;;;;;;4.64;37.82;99989.71;107704;1254;73008;-80
2024/01/12 10:47:17;;;;;;;4.30;2.30;;;;;;;4.73;37.78;99994.44;107688;1255;60566;-79
2024/01/12 10:49:56;;;;;;;4.80;2.70;;;;;;;4.94;39.84;99992.36;106076;1253;60483;-80
2024/01/12 10:52:46;;;;;;;5.30;3.00;;;;;;;5.19;39.38;99989.27;105978;1254;74045;-79
2024/01/12 10:55:17;;;;;;;4.90;3.10;;;;;;;5.38;39.95;99987.30;107512;1251;69166;-79
2024/01/12 10:57:44;;;;;;;4.00;2.70;;;;;;;5.65;38.05;99980.83;108503;1251;70887;-80
2024/01/12 11:00:14;;;;;;;6.60;3.30;;;;;;;5.81;38.66;99977.33;109274;1252;60207;-82
2024/01/12 11:02:47;;;;;;;5.60;3.60;;;;;;;6.36;40.12;99980.16;108473;1253;59382;-81
2024/01/12 11:05:14;;;;;;;6.10;3.60;;;;;;;6.93;37.38;99978.86;107447;1252;74911;-81
2024/01/12 11:07:42;;;;;;;6.50;4.00;;;;;;;7.15;37.68;99979.45;107163;1253;69258;-80
2024/01/12 11:10:10;;;;;;;4.80;3.20;;;;;;;7.39;38.65;99972.87;106021;1253;71386;-81
2024/01/12 11:12:38;;;;;;;4.40;3.00;;;;;;;7.61;38.37;99968.02;106503;1254;61726;-82
2024/01/12 11:15:07;;;;;;;6.90;3.80;;;;;;;7.34;35.08;99971.92;106529;1253;60519;-80
2024/01/12 11:17:35;;;;;;;9.40;6.70;;;;;;;6.32;34.92;99969.60;108096;1253;74728;-80
2024/01/12 11:20:10;;;;;;;8.00;6.50;;;;;;;5.21;36.82;99966.44;109018;1258;68762;-82
2024/01/12 11:22:39;;;;;;;8.80;7.40;;;;;;;4.71;39.16;99966.29;106524;1253;72462;-81
2024/01/12 11:25:08;;;;;;;6.00;4.20;;;;;;;4.74;38.74;99965.73;107697;1253;59332;-81
2024/01/12 11:27:41;;;;;;;4.30;3.40;;;;;;;4.62;38.33;99965.27;106781;1253;60410;-81